createdAt,value
2023-03-01T00:00:16.791Z,-3.52
2023-03-01T00:02:43.572Z,-3.48
2023-03-01T00:05:10.206Z,-3.35
2023-03-01T00:07:36.882Z,-3.38
2023-03-01T00:10:05.540Z,-3.41
2023-03-01T00:12:32.720Z,-3.71
2023-03-01T00:14:59.252Z,-3.46
2023-03-01T00:17:25.965Z,-3.43
2023-03-01T00:19:52.487Z,-3.51
2023-03-01T00:22:19.079Z,-3.55
2023-03-01T00:24:45.688Z,-3.57
2023-03-01T00:27:13.696Z,-3.58
2023-03-01T00:29:40.232Z,-3.61
2023-03-01T00:32:06.925Z,-3.90
2023-03-01T00:34:33.522Z,-3.74
2023-03-01T00:37:00.126Z,-3.81
2023-03-01T00:39:26.680Z,-3.85
2023-03-01T00:41:53.296Z,-3.80
2023-03-01T00:44:21.238Z,-3.87
2023-03-01T00:46:48.225Z,-3.86
2023-03-01T00:49:14.765Z,-3.88
2023-03-01T00:51:41.408Z,-3.95
2023-03-01T00:54:09.962Z,-3.98
2023-03-01T00:56:36.936Z,-4.06
2023-03-01T00:59:03.527Z,-3.89
2023-03-01T01:01:32.683Z,-3.92
2023-03-01T01:04:01.284Z,-3.86
2023-03-01T01:06:30.487Z,-3.84
2023-03-01T01:08:59.287Z,-3.84
2023-03-01T01:11:27.844Z,-3.86
2023-03-01T01:13:55.137Z,-3.92
2023-03-01T01:16:24.129Z,-4.05
2023-03-01T01:18:52.615Z,-4.27
2023-03-01T01:21:22.628Z,-4.15
2023-03-01T01:23:49.684Z,-4.16
2023-03-01T01:26:18.046Z,-4.21
2023-03-01T01:28:44.644Z,-4.25
2023-03-01T01:31:11.615Z,-4.44
2023-03-01T01:33:38.173Z,-4.21
2023-03-01T01:36:07.915Z,-4.30
2023-03-01T01:38:35.340Z,-4.38
2023-03-01T01:41:01.914Z,-4.38
2023-03-01T01:43:30.753Z,-4.47
2023-03-01T01:46:00.301Z,-4.47
2023-03-01T01:48:35.342Z,-4.50
2023-03-01T01:51:02.054Z,-4.50
2023-03-01T01:53:29.983Z,-4.53
2023-03-01T01:56:01.250Z,-4.68
2023-03-01T01:58:31.311Z,-4.65
2023-03-01T02:00:57.882Z,-4.72
2023-03-01T02:03:28.269Z,-4.79
2023-03-01T02:05:59.355Z,-4.87
2023-03-01T02:08:29.412Z,-4.92
2023-03-01T02:10:59.173Z,-4.97
2023-03-01T02:13:26.058Z,-5.00
2023-03-01T02:15:53.442Z,-5.16
2023-03-01T02:18:24.159Z,-5.08
2023-03-01T02:21:04.148Z,-5.10
2023-03-01T02:23:30.950Z,-5.22
2023-03-01T02:26:03.548Z,-5.40
2023-03-01T02:28:34.295Z,-5.10
2023-03-01T02:31:02.869Z,-5.09
2023-03-01T02:33:31.588Z,-5.01
2023-03-01T02:35:59.413Z,-5.01
2023-03-01T02:38:25.984Z,-5.07
2023-03-01T02:40:53.945Z,-5.11
2023-03-01T02:43:23.567Z,-5.08
2023-03-01T02:45:52.543Z,-5.06
2023-03-01T02:48:19.617Z,-5.11
2023-03-01T02:50:56.668Z,-5.17
2023-03-01T02:53:33.441Z,-5.23
2023-03-01T02:56:00.409Z,-5.30
2023-03-01T02:58:26.977Z,-5.37
2023-03-01T03:00:55.752Z,-5.43
2023-03-01T03:03:22.704Z,-5.48
2023-03-01T03:05:49.630Z,-5.51
2023-03-01T03:08:16.494Z,-5.52
2023-03-01T03:10:43.530Z,-5.81
2023-03-01T03:13:12.082Z,-5.90
2023-03-01T03:15:40.129Z,-5.43
2023-03-01T03:18:10.680Z,-5.46
2023-03-01T03:20:37.797Z,-5.48
2023-03-01T03:23:04.394Z,-5.56
2023-03-01T03:25:31.510Z,-5.61
2023-03-01T03:27:59.022Z,-5.65
2023-03-01T03:30:28.105Z,-5.65
2023-03-01T03:32:54.816Z,-5.66
2023-03-01T03:35:25.010Z,-5.66
2023-03-01T03:37:52.492Z,-5.68
2023-03-01T03:40:19.059Z,-5.59
2023-03-01T03:42:45.699Z,-5.63
2023-03-01T03:45:12.221Z,-5.68
2023-03-01T03:47:39.083Z,-5.74
2023-03-01T03:50:06.293Z,-5.74
2023-03-01T03:52:34.334Z,-5.72
2023-03-01T03:55:00.863Z,-5.75
2023-03-01T03:57:27.767Z,-5.79
2023-03-01T03:59:54.288Z,-5.83
2023-03-01T04:02:20.922Z,-5.87
2023-03-01T04:04:47.457Z,-5.91
2023-03-01T04:07:14.052Z,-5.88
2023-03-01T04:09:41.987Z,-5.83
2023-03-01T04:12:08.562Z,-5.87
2023-03-01T04:14:35.121Z,-5.82
2023-03-01T04:17:01.788Z,-5.96
2023-03-01T04:19:28.283Z,-5.83
2023-03-01T04:21:54.914Z,-5.82
2023-03-01T04:24:21.471Z,-5.86
2023-03-01T04:26:49.421Z,-5.88
2023-03-01T04:29:15.936Z,-5.88
2023-03-01T04:31:42.675Z,-5.92
2023-03-01T04:34:09.217Z,-6.00
2023-03-01T04:36:36.350Z,-5.97
2023-03-01T04:39:03.213Z,-6.25
2023-03-01T04:41:29.846Z,-6.02
2023-03-01T04:43:57.768Z,-6.14
2023-03-01T04:46:24.688Z,-6.08
2023-03-01T04:48:51.302Z,-6.25
2023-03-01T04:51:17.984Z,-6.09
2023-03-01T04:53:44.684Z,-6.13
2023-03-01T04:56:11.597Z,-6.13
2023-03-01T04:58:38.396Z,-6.17
2023-03-01T05:01:11.064Z,-6.19
2023-03-01T05:03:37.658Z,-6.48
2023-03-01T05:06:04.655Z,-6.71
2023-03-01T05:08:31.583Z,-6.15
2023-03-01T05:10:58.109Z,-6.08
2023-03-01T05:13:24.663Z,-6.10
2023-03-01T05:15:56.139Z,-6.28
2023-03-01T05:18:24.189Z,-6.43
2023-03-01T05:20:50.715Z,-6.24
2023-03-01T05:23:17.358Z,-6.26
2023-03-01T05:25:44.033Z,-6.28
2023-03-01T05:28:12.612Z,-6.41
2023-03-01T05:30:45.298Z,-6.37
2023-03-01T05:33:11.988Z,-6.31
2023-03-01T05:35:40.349Z,-6.34
2023-03-01T05:38:07.631Z,-6.32
2023-03-01T05:40:35.650Z,-6.34
2023-03-01T05:43:02.238Z,-6.37
2023-03-01T05:45:28.790Z,-6.39
2023-03-01T05:47:55.740Z,-6.41
2023-03-01T05:50:24.069Z,-6.41
2023-03-01T05:52:58.810Z,-6.44
2023-03-01T05:55:27.602Z,-6.45
2023-03-01T05:57:55.945Z,-6.44
2023-03-01T06:00:23.179Z,-6.52
2023-03-01T06:02:49.989Z,-6.46
2023-03-01T06:05:16.751Z,-6.40
2023-03-01T06:07:43.479Z,-6.44
2023-03-01T06:10:13.164Z,-6.47
2023-03-01T06:12:41.564Z,-6.46
2023-03-01T06:15:09.481Z,-6.49
2023-03-01T06:17:38.254Z,-6.53
2023-03-01T06:20:07.451Z,-6.61
2023-03-01T06:22:35.671Z,-6.57
2023-03-01T06:25:02.516Z,-6.63
2023-03-01T06:27:30.457Z,-6.77
2023-03-01T06:29:57.032Z,-6.70
2023-03-01T06:32:24.104Z,-6.56
2023-03-01T06:34:50.894Z,-6.53
2023-03-01T06:37:17.632Z,-6.55
2023-03-01T06:39:44.454Z,-6.70
2023-03-01T06:42:11.322Z,-6.44
2023-03-01T06:44:39.514Z,-6.45
2023-03-01T06:47:06.335Z,-6.53
2023-03-01T06:49:32.870Z,-6.56
2023-03-01T06:51:59.525Z,-6.49
2023-03-01T06:54:26.223Z,-6.51
2023-03-01T06:56:52.995Z,-6.48
2023-03-01T06:59:19.911Z,-6.49
2023-03-01T07:01:47.933Z,-6.47
2023-03-01T07:04:14.706Z,-6.41
2023-03-01T07:06:42.545Z,-6.41
2023-03-01T07:09:09.432Z,-6.38
2023-03-01T07:11:36.774Z,-6.36
2023-03-01T07:14:03.360Z,-6.34
2023-03-01T07:16:30.163Z,-6.32
2023-03-01T07:18:59.738Z,-6.21
2023-03-01T07:21:26.404Z,-6.16
2023-03-01T07:23:52.958Z,-6.34
2023-03-01T07:26:19.552Z,-6.08
2023-03-01T07:28:46.078Z,-6.06
2023-03-01T07:31:15.349Z,-6.05
2023-03-01T07:33:41.900Z,-5.92
2023-03-01T07:36:10.272Z,-5.84
2023-03-01T07:38:37.234Z,-5.76
2023-03-01T07:41:04.672Z,-5.99
2023-03-01T07:43:31.736Z,-5.57
2023-03-01T07:45:59.700Z,-5.62
2023-03-01T07:48:26.402Z,-5.39
2023-03-01T07:50:53.610Z,-5.35
2023-03-01T07:53:22.431Z,-5.30
2023-03-01T07:55:53.326Z,-5.01
2023-03-01T07:58:21.245Z,-5.03
2023-03-01T08:00:48.417Z,-4.69
2023-03-01T08:05:43.860Z,-4.43
2023-03-01T08:08:12.737Z,-4.29
2023-03-01T08:10:41.970Z,-4.24
2023-03-01T08:13:11.118Z,-4.17
2023-03-01T08:15:38.900Z,-4.22
2023-03-01T08:18:08.774Z,-3.92
2023-03-01T08:20:35.785Z,-3.78
2023-03-01T08:23:03.003Z,-3.71
2023-03-01T08:25:30.096Z,-3.49
2023-03-01T08:27:59.321Z,-3.35
2023-03-01T08:30:28.627Z,-3.91
2023-03-01T08:32:58.487Z,-3.91
2023-03-01T08:35:26.132Z,-2.91
2023-03-01T08:37:56.911Z,-2.74
2023-03-01T08:40:26.003Z,-2.62
2023-03-01T08:42:54.820Z,-2.66
2023-03-01T08:45:24.353Z,-2.43
2023-03-01T08:47:53.818Z,-2.15
2023-03-01T08:50:20.384Z,-2.03
2023-03-01T08:52:46.905Z,-1.82
2023-03-01T08:55:13.490Z,-1.65
2023-03-01T08:57:40.026Z,-1.48
2023-03-01T09:00:08.301Z,-1.30
2023-03-01T09:02:36.329Z,-1.20
2023-03-01T09:05:02.916Z,-0.95
2023-03-01T09:07:29.634Z,-0.75
2023-03-01T09:09:56.408Z,-0.54
2023-03-01T09:12:23.218Z,-0.30
2023-03-01T09:14:49.783Z,0.00
2023-03-01T09:17:16.355Z,0.36
2023-03-01T09:19:44.253Z,0.51
2023-03-01T09:22:10.798Z,0.89
2023-03-01T09:24:37.712Z,0.99
2023-03-01T09:27:04.245Z,1.16
2023-03-01T09:29:31.076Z,1.28
2023-03-01T09:31:57.695Z,1.39
2023-03-01T09:34:24.545Z,1.51
2023-03-01T09:36:52.664Z,1.56
2023-03-01T09:39:19.595Z,1.72
2023-03-01T09:41:50.906Z,2.03
2023-03-01T09:44:26.957Z,2.16
2023-03-01T09:46:53.765Z,2.00
2023-03-01T09:49:24.566Z,2.41
2023-03-01T09:51:59.982Z,2.42
2023-03-01T09:54:28.124Z,2.73
2023-03-01T09:57:18.860Z,2.88
2023-03-01T09:59:56.899Z,2.94
2023-03-01T10:02:30.196Z,3.14
2023-03-01T10:05:06.723Z,3.21
2023-03-01T10:07:44.419Z,3.38
2023-03-01T10:10:22.531Z,3.52
2023-03-01T10:12:49.835Z,3.21
2023-03-01T10:15:20.430Z,3.40
2023-03-01T10:17:51.233Z,3.53
2023-03-01T10:20:21.516Z,3.80
2023-03-01T10:22:51.375Z,4.00
2023-03-01T10:25:27.972Z,4.13
2023-03-01T10:28:00.642Z,4.20
2023-03-01T10:30:36.928Z,4.33
2023-03-01T10:33:05.333Z,4.46
2023-03-01T10:35:34.753Z,4.00
2023-03-01T10:38:07.062Z,4.53
2023-03-01T10:40:34.996Z,4.64
2023-03-01T10:43:04.325Z,4.72
2023-03-01T10:45:33.736Z,4.51
2023-03-01T10:48:13.260Z,4.86
2023-03-01T10:50:42.394Z,4.87
2023-03-01T10:53:24.968Z,4.99
2023-03-01T10:55:59.602Z,5.09
2023-03-01T10:58:26.775Z,5.15
2023-03-01T11:00:55.103Z,5.25
2023-03-01T11:03:27.637Z,5.40
2023-03-01T11:05:58.558Z,5.45
2023-03-01T11:08:35.316Z,5.42
2023-03-01T11:11:07.946Z,5.59
2023-03-01T11:13:36.937Z,5.77
2023-03-01T11:16:08.321Z,5.88
2023-03-01T11:18:47.010Z,6.02
2023-03-01T11:21:14.317Z,6.20
2023-03-01T11:23:44.700Z,5.88
2023-03-01T11:26:14.042Z,5.18
2023-03-01T11:28:43.460Z,6.36
2023-03-01T11:31:12.542Z,6.72
2023-03-01T11:33:45.410Z,6.70
2023-03-01T11:36:21.834Z,6.96
2023-03-01T11:38:51.027Z,7.12
2023-03-01T11:41:21.396Z,7.35
2023-03-01T11:43:52.134Z,7.52
2023-03-01T11:46:39.840Z,7.49
2023-03-01T11:49:20.712Z,7.63
2023-03-01T11:51:56.683Z,7.80
2023-03-01T11:54:51.720Z,7.98
2023-03-01T11:57:42.345Z,8.09
2023-03-01T12:00:26.240Z,8.16
2023-03-01T12:03:26.732Z,8.16
2023-03-01T12:06:30.628Z,8.10
2023-03-01T12:09:06.854Z,7.85
2023-03-01T12:11:44.952Z,8.12
2023-03-01T12:14:33.810Z,8.17
2023-03-01T12:17:15.548Z,8.20
2023-03-01T12:20:02.848Z,8.12
2023-03-01T12:22:35.710Z,8.22
2023-03-01T12:25:22.422Z,8.35
2023-03-01T12:28:13.625Z,8.59
2023-03-01T12:31:06.851Z,8.74
2023-03-01T12:33:45.852Z,8.66
2023-03-01T12:36:28.159Z,8.78
2023-03-01T12:39:05.328Z,8.75
2023-03-01T12:41:46.894Z,8.84
2023-03-01T12:44:32.397Z,8.75
2023-03-01T12:47:12.218Z,8.87
2023-03-01T12:49:44.016Z,9.03
2023-03-01T12:52:17.415Z,9.02
2023-03-01T12:54:46.381Z,9.05
2023-03-01T12:57:19.016Z,9.14
2023-03-01T13:00:00.753Z,9.22
2023-03-01T13:02:32.674Z,9.31
2023-03-01T13:05:11.261Z,9.32
2023-03-01T13:07:42.549Z,9.32
2023-03-01T13:10:20.200Z,9.33
2023-03-01T13:12:52.586Z,9.37
2023-03-01T13:15:31.839Z,9.38
2023-03-01T13:18:00.753Z,9.37
2023-03-01T13:20:32.325Z,9.44
2023-03-01T13:23:06.144Z,9.45
2023-03-01T13:25:42.014Z,9.59
2023-03-01T13:28:39.421Z,9.62
2023-03-01T13:31:08.963Z,9.53
2023-03-01T13:33:43.659Z,9.66
2023-03-01T13:36:48.329Z,9.85
2023-03-01T13:39:30.847Z,9.90
2023-03-01T13:41:57.955Z,9.80
2023-03-01T13:44:29.766Z,9.73
2023-03-01T13:46:59.828Z,9.81
2023-03-01T13:49:38.073Z,9.77
2023-03-01T13:52:39.357Z,9.79
2023-03-01T13:55:18.412Z,9.86
2023-03-01T13:57:48.209Z,9.90
2023-03-01T14:00:31.359Z,9.99
2023-03-01T14:03:06.317Z,10.11
2023-03-01T14:05:33.812Z,10.20
2023-03-01T14:08:00.358Z,10.28
2023-03-01T14:10:36.509Z,10.36
2023-03-01T14:13:18.052Z,10.42
2023-03-01T14:15:55.785Z,10.30
2023-03-01T14:18:33.604Z,10.43
2023-03-01T14:21:00.463Z,10.47
2023-03-01T14:23:27.864Z,10.42
2023-03-01T14:25:56.474Z,10.45
2023-03-01T14:28:25.745Z,10.47
2023-03-01T14:30:54.593Z,10.40
2023-03-01T14:33:26.395Z,10.46
2023-03-01T14:35:53.805Z,10.42
2023-03-01T14:38:22.036Z,10.43
2023-03-01T14:40:52.132Z,10.44
2023-03-01T14:43:23.677Z,10.49
2023-03-01T14:45:51.539Z,10.59
2023-03-01T14:48:19.545Z,10.54
2023-03-01T14:50:48.243Z,10.55
2023-03-01T14:53:19.475Z,10.43
2023-03-01T14:55:48.736Z,10.54
2023-03-01T14:58:20.040Z,10.52
2023-03-01T15:00:50.984Z,10.57
2023-03-01T15:03:25.538Z,10.58
2023-03-01T15:05:54.106Z,10.70
2023-03-01T15:08:24.523Z,10.69
2023-03-01T15:10:59.829Z,10.57
2023-03-01T15:13:31.150Z,10.56
2023-03-01T15:16:06.692Z,10.61
2023-03-01T15:18:33.877Z,10.61
2023-03-01T15:21:10.940Z,10.65
2023-03-01T15:23:39.304Z,10.62
2023-03-01T15:26:05.948Z,10.60
2023-03-01T15:28:35.253Z,10.58
2023-03-01T15:31:08.365Z,10.54
2023-03-01T15:33:37.651Z,10.51
2023-03-01T15:36:19.950Z,10.40
2023-03-01T15:38:56.487Z,10.34
2023-03-01T15:41:25.127Z,10.21
2023-03-01T15:43:52.020Z,10.05
2023-03-01T15:46:23.269Z,10.09
2023-03-01T15:48:53.278Z,10.05
2023-03-01T15:51:24.038Z,9.93
2023-03-01T15:53:54.763Z,9.68
2023-03-01T15:56:22.851Z,9.94
2023-03-01T15:58:49.437Z,9.70
2023-03-01T16:01:18.797Z,9.79
2023-03-01T16:03:45.891Z,9.68
2023-03-01T16:06:12.864Z,9.55
2023-03-01T16:08:39.730Z,9.54
2023-03-01T16:11:14.049Z,9.42
2023-03-01T16:13:42.046Z,9.37
2023-03-01T16:16:11.122Z,9.21
2023-03-01T16:18:37.757Z,9.17
2023-03-01T16:21:04.875Z,9.04
2023-03-01T16:23:31.492Z,8.96
2023-03-01T16:26:00.280Z,8.72
2023-03-01T16:28:28.671Z,8.64
2023-03-01T16:30:57.230Z,8.66
2023-03-01T16:33:30.353Z,8.56
2023-03-01T16:36:00.507Z,8.43
2023-03-01T16:38:27.128Z,8.41
2023-03-01T16:40:54.032Z,8.31
2023-03-01T16:43:20.601Z,8.19
2023-03-01T16:45:47.393Z,7.95
2023-03-01T16:48:15.482Z,7.92
2023-03-01T16:50:42.207Z,7.79
2023-03-01T16:53:08.793Z,7.58
2023-03-01T16:55:35.801Z,7.59
2023-03-01T16:58:03.232Z,7.38
2023-03-01T17:00:29.927Z,7.22
2023-03-01T17:02:56.475Z,7.08
2023-03-01T17:05:24.456Z,7.01
2023-03-01T17:07:51.012Z,6.96
2023-03-01T17:10:17.881Z,6.90
2023-03-01T17:12:44.469Z,6.82
2023-03-01T17:15:11.479Z,6.74
2023-03-01T17:17:37.987Z,6.63
2023-03-01T17:20:05.499Z,6.47
2023-03-01T17:22:33.398Z,6.32
2023-03-01T17:25:00.097Z,6.15
2023-03-01T17:27:26.725Z,6.00
2023-03-01T17:29:53.580Z,5.81
2023-03-01T17:32:20.128Z,5.73
2023-03-01T17:34:46.800Z,5.66
2023-03-01T17:37:13.363Z,5.57
2023-03-01T17:39:41.290Z,5.50
2023-03-01T17:42:08.086Z,5.40
2023-03-01T17:44:34.928Z,5.27
2023-03-01T17:47:01.787Z,5.12
2023-03-01T17:49:28.523Z,4.87
2023-03-01T17:51:55.352Z,4.77
2023-03-01T17:54:22.069Z,4.58
2023-03-01T17:56:50.413Z,4.33
2023-03-01T17:59:17.125Z,4.16
2023-03-01T18:01:43.997Z,3.98
2023-03-01T18:04:10.745Z,3.85
2023-03-01T18:06:37.486Z,3.31
2023-03-01T18:09:04.839Z,3.36
2023-03-01T18:11:34.205Z,3.43
2023-03-01T18:14:02.537Z,3.28
2023-03-01T18:16:29.442Z,3.12
2023-03-01T18:18:57.049Z,2.97
2023-03-01T18:21:24.034Z,2.83
2023-03-01T18:23:53.407Z,2.76
2023-03-01T18:26:20.309Z,2.67
2023-03-01T18:28:46.833Z,2.28
2023-03-01T18:31:15.625Z,2.32
2023-03-01T18:33:42.133Z,2.24
2023-03-01T18:36:18.006Z,2.12
2023-03-01T18:38:44.738Z,2.03
2023-03-01T18:41:11.236Z,2.00
2023-03-01T18:43:37.818Z,1.92
2023-03-01T18:46:04.769Z,1.82
2023-03-01T18:48:33.132Z,1.77
2023-03-01T18:51:07.825Z,1.68
2023-03-01T18:53:34.464Z,1.66
2023-03-01T18:56:00.988Z,1.62
2023-03-01T18:58:29.758Z,1.46
2023-03-01T19:00:59.251Z,1.35
2023-03-01T19:03:29.306Z,1.39
2023-03-01T19:06:00.959Z,1.00
2023-03-01T19:08:29.996Z,1.19
2023-03-01T19:11:01.996Z,1.23
2023-03-01T19:13:32.585Z,1.11
2023-03-01T19:16:04.632Z,0.89
2023-03-01T19:18:31.536Z,0.96
2023-03-01T19:21:03.865Z,0.90
2023-03-01T19:23:31.943Z,0.85
2023-03-01T19:25:59.618Z,0.79
2023-03-01T19:28:26.287Z,0.75
2023-03-01T19:30:57.931Z,0.34
2023-03-01T19:33:24.586Z,0.65
2023-03-01T19:35:51.099Z,0.60
2023-03-01T19:38:19.133Z,0.53
2023-03-01T19:40:45.666Z,0.30
2023-03-01T19:43:12.281Z,0.41
2023-03-01T19:45:38.845Z,0.38
2023-03-01T19:48:06.166Z,0.37
2023-03-01T19:50:32.693Z,0.32
2023-03-01T19:52:59.342Z,0.17
2023-03-01T19:55:27.274Z,0.00
2023-03-01T19:57:53.966Z,0.22
2023-03-01T20:00:21.307Z,0.14
2023-03-01T20:02:47.982Z,0.09
2023-03-01T20:05:14.708Z,0.05
2023-03-01T20:07:41.359Z,0.03
2023-03-01T20:10:09.396Z,0.00
2023-03-01T20:12:37.412Z,-0.08
2023-03-01T20:15:04.513Z,-0.17
2023-03-01T20:17:31.129Z,-0.54
2023-03-01T20:19:57.698Z,-0.30
2023-03-01T20:22:24.442Z,-0.26
2023-03-01T20:24:50.940Z,-0.34
2023-03-01T20:27:17.552Z,-0.34
2023-03-01T20:29:45.505Z,-0.39
2023-03-01T20:32:12.280Z,-0.58
2023-03-01T20:34:38.822Z,-0.46
2023-03-01T20:37:05.551Z,-0.53
2023-03-01T20:39:32.081Z,-0.52
2023-03-01T20:41:58.674Z,-0.60
2023-03-01T20:44:25.239Z,-1.00
2023-03-01T20:46:53.594Z,-0.64
2023-03-01T20:49:20.140Z,-0.69
2023-03-01T20:51:46.773Z,-0.71
2023-03-01T20:54:13.365Z,-0.78
2023-03-01T20:56:40.008Z,-0.78
2023-03-01T20:59:08.404Z,-0.85
2023-03-01T21:01:37.263Z,-1.04
2023-03-01T21:04:05.901Z,-0.92
2023-03-01T21:06:32.997Z,-0.94
2023-03-01T21:08:59.744Z,-0.98
2023-03-01T21:11:26.348Z,-1.01
2023-03-01T21:13:53.661Z,-1.15
2023-03-01T21:16:21.116Z,-1.04
2023-03-01T21:18:48.275Z,-1.25
2023-03-01T21:21:18.765Z,-1.10
2023-03-01T21:23:46.025Z,-1.07
2023-03-01T21:26:14.884Z,-1.17
2023-03-01T21:28:42.581Z,-1.05
2023-03-01T21:31:11.510Z,-1.06
2023-03-01T21:33:39.965Z,-1.15
2023-03-01T21:36:09.315Z,-1.17
2023-03-01T21:38:39.514Z,-1.18
2023-03-01T21:41:07.232Z,-1.23
2023-03-01T21:43:34.146Z,-1.25
2023-03-01T21:46:02.359Z,-1.25
2023-03-01T21:48:29.233Z,-1.39
2023-03-01T21:50:56.210Z,-1.41
2023-03-01T21:53:23.204Z,-1.53
2023-03-01T21:55:51.269Z,-1.44
2023-03-01T21:58:18.032Z,-1.51
2023-03-01T22:00:44.699Z,-1.51
2023-03-01T22:03:11.337Z,-1.51
2023-03-01T22:05:37.998Z,-1.55
2023-03-01T22:08:05.396Z,-1.66
2023-03-01T22:10:32.186Z,-1.60
2023-03-01T22:13:00.135Z,-1.65
2023-03-01T22:15:27.713Z,-1.65
2023-03-01T22:17:54.756Z,-1.72
2023-03-01T22:20:21.565Z,-1.71
2023-03-01T22:22:48.255Z,-2.22
2023-03-01T22:25:15.072Z,-1.78
2023-03-01T22:27:41.668Z,-1.86
2023-03-01T22:30:12.099Z,-1.87
2023-03-01T22:32:39.226Z,-1.89
2023-03-01T22:35:06.682Z,-1.91
2023-03-01T22:37:33.317Z,-2.05
2023-03-01T22:40:00.184Z,-2.26
2023-03-01T22:42:26.945Z,-2.05
2023-03-01T22:44:53.481Z,-2.09
2023-03-01T22:47:21.440Z,-2.30
2023-03-01T22:49:48.184Z,-2.07
2023-03-01T22:52:15.123Z,-2.08
2023-03-01T22:54:42.040Z,-2.31
2023-03-01T22:57:08.604Z,-2.19
2023-03-01T22:59:35.143Z,-2.20
2023-03-01T23:02:01.927Z,-2.26
2023-03-01T23:04:29.879Z,-2.28
2023-03-01T23:06:56.523Z,-2.31
2023-03-01T23:09:25.607Z,-2.24
2023-03-01T23:11:53.161Z,-2.69
2023-03-01T23:14:20.370Z,-2.83
2023-03-01T23:16:47.528Z,-2.36
2023-03-01T23:19:14.184Z,-2.61
2023-03-01T23:21:42.491Z,-2.55
2023-03-01T23:24:09.055Z,-2.49
2023-03-01T23:26:35.770Z,-2.51
2023-03-01T23:29:02.350Z,-2.52
2023-03-01T23:31:28.967Z,-2.56
2023-03-01T23:33:56.160Z,-2.48
2023-03-01T23:36:24.435Z,-2.47
2023-03-01T23:38:56.547Z,-2.46
2023-03-01T23:41:24.598Z,-2.55
2023-03-01T23:43:53.176Z,-2.58
2023-03-01T23:46:21.215Z,-2.59
2023-03-01T23:48:48.665Z,-2.73
2023-03-01T23:51:17.084Z,-2.61
2023-03-01T23:53:45.993Z,-2.64
2023-03-01T23:56:14.542Z,-2.65
2023-03-01T23:58:41.140Z,-2.69
